Time;durP1;ratioP1;P1;durP2;ratioP2;P2;SDS_P1;SDS_P2;PMS_P1;PMS_P2;Temp;Humidity;BMP_temperature;BMP_pressure;BME280_temperature;BME280_humidity;BME280_pressure;Samples;Min_cycle;Max_cycle;Signal;HPM_P1;HPM_P2
2023/10/27 00:01:44;;;;;;;1.43;0.50;;;;;;;;;;5115665;28;21030;-88
2023/10/27 00:04:10;;;;;;;0.97;0.27;;;;;;;;;;5116112;28;20405;-88
2023/10/27 00:06:36;;;;;;;3.03;0.30;;;;;;;;;;5114230;28;20862;-88
2023/10/27 00:09:02;;;;;;;2.10;0.30;;;;;;;;;;5116034;28;20443;-88
2023/10/27 00:11:29;;;;;;;0.60;0.20;;;;;;;;;;5116100;28;20416;-88
2023/10/27 00:13:55;;;;;;;0.50;0.20;;;;;;;;;;5114311;28;20443;-88
2023/10/27 00:16:21;;;;;;;1.47;0.20;;;;;;;;;;5116109;28;20782;-88
2023/10/27 00:18:47;;;;;;;0.93;0.20;;;;;;;;;;5102752;28;20803;-85
2023/10/27 00:21:13;;;;;;;1.23;0.20;;;;;;;;;;5095470;28;20477;-88
2023/10/27 00:23:39;;;;;;;5.60;0.23;;;;;;;;;;5095680;28;20168;-89
2023/10/27 00:26:05;;;;;;;0.97;0.30;;;;;;;;;;5095748;28;20410;-90
2023/10/27 00:28:31;;;;;;;3.00;0.10;;;;;;;;;;5095759;28;20476;-89
2023/10/27 00:30:59;;;;;;;1.70;0.20;;;;;;;;;;5095946;28;20410;-90
2023/10/27 00:33:25;;;;;;;1.00;0.20;;;;;;;;;;5096261;28;20410;-90
2023/10/27 00:35:53;;;;;;;0.83;0.20;;;;;;;;;;5094026;28;20783;-91
2023/10/27 00:38:19;;;;;;;1.93;0.30;;;;;;;;;;5116200;28;20780;-86
2023/10/27 00:40:46;;;;;;;0.73;0.20;;;;;;;;;;5115264;28;20456;-91
2023/10/27 00:43:16;;;;;;;2.33;0.20;;;;;;;;;;5116028;28;20777;-92
2023/10/27 00:45:43;;;;;;;0.97;0.20;;;;;;;;;;5116276;28;20415;-91
2023/10/27 00:48:09;;;;;;;0.87;0.30;;;;;;;;;;5115941;28;20555;-91
2023/10/27 00:50:35;;;;;;;1.30;0.30;;;;;;;;;;5116367;28;20448;-90
2023/10/27 00:53:01;;;;;;;1.93;0.20;;;;;;;;;;5116241;28;20771;-92
2023/10/27 00:55:26;;;;;;;1.27;0.23;;;;;;;;;;5116213;28;20416;-91
2023/10/27 00:57:53;;;;;;;1.53;0.20;;;;;;;;;;5116280;28;20412;-87
2023/10/27 01:00:19;;;;;;;2.67;0.50;;;;;;;;;;5116108;28;20407;-87
2023/10/27 01:02:45;;;;;;;0.60;0.20;;;;;;;;;;5115924;28;20413;-90
2023/10/27 01:05:10;;;;;;;1.10;0.47;;;;;;;;;;5115783;28;20427;-87
2023/10/27 01:07:38;;;;;;;1.37;0.50;;;;;;;;;;5115654;28;20416;-93
2023/10/27 01:10:04;;;;;;;1.77;0.40;;;;;;;;;;5115812;28;20404;-87
2023/10/27 01:12:31;;;;;;;1.90;0.20;;;;;;;;;;5114788;28;20901;-91
2023/10/27 01:14:57;;;;;;;1.30;0.40;;;;;;;;;;5115695;28;20499;-90
2023/10/27 01:17:23;;;;;;;1.03;0.20;;;;;;;;;;5108228;28;20870;-89
2023/10/27 01:19:49;;;;;;;0.90;0.20;;;;;;;;;;5084554;28;20505;-88
2023/10/27 01:22:15;;;;;;;2.03;0.30;;;;;;;;;;5094249;28;20222;-87
2023/10/27 01:24:41;;;;;;;1.10;0.40;;;;;;;;;;5094266;28;20413;-87
2023/10/27 01:27:07;;;;;;;0.50;0.37;;;;;;;;;;5094011;28;20533;-85
2023/10/27 01:29:33;;;;;;;1.63;0.20;;;;;;;;;;5093047;28;20824;-86
2023/10/27 01:31:59;;;;;;;1.80;0.50;;;;;;;;;;5093897;28;20428;-86
2023/10/27 01:34:25;;;;;;;2.60;0.30;;;;;;;;;;5093840;28;20893;-86
2023/10/27 01:36:51;;;;;;;1.07;0.37;;;;;;;;;;5092549;28;20171;-86
2023/10/27 01:39:18;;;;;;;1.40;0.30;;;;;;;;;;5093780;28;20418;-86
2023/10/27 01:41:44;;;;;;;0.83;0.20;;;;;;;;;;5093651;28;20469;-86
2023/10/27 01:44:10;;;;;;;1.43;0.30;;;;;;;;;;5093262;28;20408;-85
2023/10/27 01:46:36;;;;;;;0.83;0.30;;;;;;;;;;5093339;28;20410;-86
2023/10/27 01:49:03;;;;;;;1.50;0.27;;;;;;;;;;5093283;28;20759;-86
2023/10/27 01:51:29;;;;;;;1.67;0.20;;;;;;;;;;5092258;28;20427;-85
2023/10/27 01:53:55;;;;;;;0.97;0.40;;;;;;;;;;5111950;28;20421;-87
2023/10/27 01:56:21;;;;;;;1.03;0.20;;;;;;;;;;5113808;28;20418;-86
2023/10/27 01:58:46;;;;;;;1.17;0.30;;;;;;;;;;5113189;28;20408;-86
2023/10/27 02:01:14;;;;;;;0.90;0.20;;;;;;;;;;5113633;28;20595;-87
2023/10/27 02:03:40;;;;;;;2.00;0.40;;;;;;;;;;5113726;28;20417;-85
2023/10/27 02:06:06;;;;;;;2.63;0.33;;;;;;;;;;5113847;28;20508;-86
2023/10/27 02:08:32;;;;;;;1.17;0.37;;;;;;;;;;5112262;28;20420;-85
2023/10/27 02:10:58;;;;;;;2.70;0.30;;;;;;;;;;5112486;28;20424;-87
2023/10/27 02:13:24;;;;;;;0.73;0.20;;;;;;;;;;5113185;28;20768;-87
2023/10/27 02:15:50;;;;;;;2.23;0.57;;;;;;;;;;5113599;28;20882;-88
2023/10/27 02:18:16;;;;;;;1.33;0.40;;;;;;;;;;5113704;28;20189;-88
2023/10/27 02:20:41;;;;;;;0.70;0.30;;;;;;;;;;5112109;28;20474;-87
2023/10/27 02:23:07;;;;;;;1.00;0.20;;;;;;;;;;5113441;28;20445;-86
2023/10/27 02:25:33;;;;;;;1.60;0.20;;;;;;;;;;5113415;28;20413;-86
2023/10/27 02:27:59;;;;;;;0.70;0.20;;;;;;;;;;5111818;28;20418;-87
2023/10/27 02:30:25;;;;;;;2.07;0.30;;;;;;;;;;5111778;28;20549;-86
2023/10/27 02:32:51;;;;;;;2.13;0.37;;;;;;;;;;5111874;28;20926;-86
2023/10/27 02:35:17;;;;;;;0.77;0.20;;;;;;;;;;5094984;28;20528;-86
2023/10/27 02:37:43;;;;;;;0.90;0.30;;;;;;;;;;5085685;28;20459;-87
2023/10/27 02:40:09;;;;;;;1.37;0.20;;;;;;;;;;5072627;28;20423;-86
2023/10/27 02:42:37;;;;;;;4.03;0.57;;;;;;;;;;5072252;28;20814;-85
2023/10/27 02:45:03;;;;;;;1.20;0.20;;;;;;;;;;5086455;28;20409;-86
2023/10/27 02:47:28;;;;;;;2.13;0.37;;;;;;;;;;5112947;28;20553;-86
2023/10/27 02:49:54;;;;;;;2.10;0.60;;;;;;;;;;5111815;28;20900;-86
2023/10/27 02:52:20;;;;;;;3.00;0.40;;;;;;;;;;5113136;28;20168;-86
2023/10/27 02:54:46;;;;;;;4.77;0.50;;;;;;;;;;5111753;28;20541;-87
2023/10/27 02:57:12;;;;;;;0.83;0.23;;;;;;;;;;5113069;28;20167;-86
2023/10/27 02:59:38;;;;;;;4.20;0.20;;;;;;;;;;5113646;28;20423;-86
2023/10/27 03:02:05;;;;;;;0.90;0.30;;;;;;;;;;5117053;28;20217;-87
2023/10/27 03:04:31;;;;;;;1.10;0.20;;;;;;;;;;5117240;28;20429;-87
2023/10/27 03:06:57;;;;;;;0.80;0.20;;;;;;;;;;5115920;28;20945;-87
2023/10/27 03:09:23;;;;;;;1.37;0.43;;;;;;;;;;5115929;28;20424;-85
2023/10/27 03:11:49;;;;;;;1.40;0.20;;;;;;;;;;5117395;28;20173;-85
2023/10/27 03:14:16;;;;;;;0.87;0.30;;;;;;;;;;5117009;28;20171;-87
2023/10/27 03:16:43;;;;;;;1.07;0.50;;;;;;;;;;5117194;28;20432;-87
2023/10/27 03:19:09;;;;;;;1.77;0.60;;;;;;;;;;5117269;28;20767;-84
2023/10/27 03:21:35;;;;;;;1.30;0.40;;;;;;;;;;5117131;28;20506;-85
2023/10/27 03:24:01;;;;;;;1.27;0.33;;;;;;;;;;5116670;28;20418;-88
2023/10/27 03:26:28;;;;;;;1.03;0.20;;;;;;;;;;5116634;28;20419;-86
2023/10/27 03:28:54;;;;;;;2.13;0.20;;;;;;;;;;5115577;28;20419;-88
2023/10/27 03:31:20;;;;;;;1.40;0.30;;;;;;;;;;5117384;28;20414;-89
2023/10/27 03:33:46;;;;;;;2.80;0.20;;;;;;;;;;5117472;28;20420;-89
2023/10/27 03:36:12;;;;;;;0.80;0.20;;;;;;;;;;5117054;28;20413;-87
2023/10/27 03:38:38;;;;;;;1.27;0.20;;;;;;;;;;5116756;28;20171;-87
2023/10/27 03:41:04;;;;;;;1.50;0.20;;;;;;;;;;5116612;28;20687;-87
2023/10/27 03:43:30;;;;;;;1.23;0.37;;;;;;;;;;5115287;28;20492;-86
2023/10/27 03:45:55;;;;;;;0.80;0.20;;;;;;;;;;5116571;28;20428;-86
2023/10/27 03:48:21;;;;;;;0.77;0.20;;;;;;;;;;5116488;28;20494;-85
2023/10/27 03:50:47;;;;;;;0.83;0.20;;;;;;;;;;5116060;28;20791;-87
2023/10/27 03:53:13;;;;;;;0.80;0.20;;;;;;;;;;5116151;28;20417;-86
2023/10/27 03:55:39;;;;;;;1.33;0.20;;;;;;;;;;5114992;28;20461;-85
2023/10/27 03:58:15;;;;;;;1.73;0.20;;;;;;;;;;5115841;28;20469;-88
2023/10/27 04:00:41;;;;;;;2.27;0.30;;;;;;;;;;5115874;28;20216;-87
2023/10/27 04:03:07;;;;;;;0.90;0.20;;;;;;;;;;5115897;28;20511;-88
2023/10/27 04:05:33;;;;;;;1.33;0.20;;;;;;;;;;5115946;28;20404;-86
2023/10/27 04:07:59;;;;;;;2.20;0.20;;;;;;;;;;5108906;28;20429;-86
2023/10/27 04:10:24;;;;;;;0.50;0.20;;;;;;;;;;5095720;28;20405;-86
2023/10/27 04:12:51;;;;;;;1.13;0.20;;;;;;;;;;5094130;28;20908;-87
2023/10/27 04:15:17;;;;;;;1.30;0.20;;;;;;;;;;5095650;28;20411;-88
2023/10/27 04:17:43;;;;;;;0.90;0.20;;;;;;;;;;5095669;28;20408;-86
2023/10/27 04:20:09;;;;;;;0.60;0.30;;;;;;;;;;5095406;28;20403;-87
2023/10/27 04:22:35;;;;;;;1.57;0.37;;;;;;;;;;5095667;28;20531;-87
2023/10/27 04:25:01;;;;;;;0.90;0.20;;;;;;;;;;5095420;28;20417;-86
2023/10/27 04:27:28;;;;;;;2.53;0.23;;;;;;;;;;5095136;28;20184;-87
2023/10/27 04:29:56;;;;;;;1.23;0.20;;;;;;;;;;5095230;28;20402;-86
2023/10/27 04:32:22;;;;;;;0.73;0.20;;;;;;;;;;5095264;28;20417;-86
2023/10/27 04:34:48;;;;;;;1.13;0.20;;;;;;;;;;5084218;28;20431;-85
2023/10/27 04:37:14;;;;;;;2.13;0.20;;;;;;;;;;5084920;28;20977;-88
2023/10/27 04:39:40;;;;;;;1.40;0.40;;;;;;;;;;5075207;28;20429;-86
2023/10/27 04:42:07;;;;;;;2.07;0.50;;;;;;;;;;5075129;28;20477;-85
2023/10/27 04:44:33;;;;;;;2.93;0.30;;;;;;;;;;5074526;28;20754;-86
2023/10/27 04:46:59;;;;;;;1.20;0.33;;;;;;;;;;5091891;28;20973;-84
2023/10/27 04:49:26;;;;;;;1.50;0.47;;;;;;;;;;5093808;28;20473;-87
2023/10/27 04:51:52;;;;;;;1.93;0.57;;;;;;;;;;5094867;28;20917;-87
2023/10/27 04:54:18;;;;;;;1.37;0.20;;;;;;;;;;5093694;28;20410;-86
2023/10/27 04:56:44;;;;;;;0.97;0.20;;;;;;;;;;5094848;28;21071;-86
2023/10/27 04:59:10;;;;;;;1.00;0.20;;;;;;;;;;5094535;28;20417;-86
2023/10/27 05:01:36;;;;;;;0.73;0.20;;;;;;;;;;5094743;28;20481;-88
2023/10/27 05:04:02;;;;;;;0.80;0.20;;;;;;;;;;5094956;28;20422;-85
2023/10/27 05:06:30;;;;;;;1.07;0.20;;;;;;;;;;5094152;28;20960;-85
2023/10/27 05:08:56;;;;;;;1.80;0.60;;;;;;;;;;5094769;28;20496;-87
2023/10/27 05:11:22;;;;;;;1.30;0.47;;;;;;;;;;5094874;28;20502;-88
2023/10/27 05:13:48;;;;;;;1.33;0.40;;;;;;;;;;5093423;28;20418;-89
2023/10/27 05:16:14;;;;;;;1.17;0.20;;;;;;;;;;5094583;28;20508;-89
2023/10/27 05:18:40;;;;;;;4.20;0.50;;;;;;;;;;5094621;28;20825;-88
2023/10/27 05:21:07;;;;;;;1.40;0.30;;;;;;;;;;5075566;28;20507;-87
2023/10/27 05:23:33;;;;;;;1.90;0.43;;;;;;;;;;5086551;28;20453;-86
2023/10/27 05:25:59;;;;;;;1.13;0.53;;;;;;;;;;5076900;28;20482;-85
2023/10/27 05:28:25;;;;;;;2.07;0.43;;;;;;;;;;5073489;28;20908;-84
2023/10/27 05:30:52;;;;;;;1.37;0.20;;;;;;;;;;5077173;28;20440;-85
2023/10/27 05:33:18;;;;;;;2.20;0.60;;;;;;;;;;5094111;28;20406;-84
2023/10/27 05:35:43;;;;;;;2.47;0.27;;;;;;;;;;5094148;28;20479;-87
2023/10/27 05:38:09;;;;;;;1.40;0.40;;;;;;;;;;5098176;28;20882;-85
2023/10/27 05:40:35;;;;;;;3.10;0.50;;;;;;;;;;5114469;28;20463;-88
2023/10/27 05:43:01;;;;;;;3.30;0.67;;;;;;;;;;5114386;28;20408;-89
2023/10/27 05:45:27;;;;;;;1.60;0.50;;;;;;;;;;5114531;28;20397;-84
2023/10/27 05:47:54;;;;;;;1.60;0.40;;;;;;;;;;5114516;28;20664;-87
2023/10/27 05:50:19;;;;;;;2.13;0.40;;;;;;;;;;5114636;28;20529;-88
2023/10/27 05:52:45;;;;;;;3.13;1.07;;;;;;;;;;5113257;28;20412;-84
2023/10/27 05:55:11;;;;;;;1.47;0.37;;;;;;;;;;5114173;28;20469;-87
2023/10/27 05:57:38;;;;;;;3.10;0.50;;;;;;;;;;5115494;28;20439;-88
2023/10/27 06:00:04;;;;;;;3.03;0.40;;;;;;;;;;5113504;28;20181;-84
2023/10/27 06:02:30;;;;;;;1.53;0.37;;;;;;;;;;5113956;28;20473;-85
2023/10/27 06:04:56;;;;;;;1.97;0.40;;;;;;;;;;5114043;28;20506;-84
2023/10/27 06:07:22;;;;;;;1.83;0.43;;;;;;;;;;5113860;28;20500;-83
2023/10/27 06:09:49;;;;;;;4.13;0.87;;;;;;;;;;5114019;28;20176;-82
2023/10/27 06:12:17;;;;;;;2.37;1.27;;;;;;;;;;5113446;28;20426;-82
2023/10/27 06:14:46;;;;;;;3.40;1.10;;;;;;;;;;5112545;28;20419;-83
2023/10/27 06:17:12;;;;;;;1.37;0.77;;;;;;;;;;5113803;28;20427;-82
2023/10/27 06:19:38;;;;;;;3.23;0.90;;;;;;;;;;5113703;28;20464;-83
2023/10/27 06:22:05;;;;;;;2.50;0.40;;;;;;;;;;5113736;28;20556;-84
2023/10/27 06:24:31;;;;;;;2.50;0.70;;;;;;;;;;5113661;28;20408;-83
2023/10/27 06:26:58;;;;;;;3.40;0.40;;;;;;;;;;5113430;28;20416;-83
2023/10/27 06:29:24;;;;;;;3.17;0.70;;;;;;;;;;5086094;28;20818;-83
2023/10/27 06:31:50;;;;;;;2.07;0.70;;;;;;;;;;5077439;28;20519;-81
2023/10/27 06:34:16;;;;;;;2.67;0.97;;;;;;;;;;5072092;28;20408;-83
2023/10/27 06:36:42;;;;;;;1.60;0.30;;;;;;;;;;5073033;28;20424;-82
2023/10/27 06:39:08;;;;;;;2.33;0.63;;;;;;;;;;5072879;28;20811;-84
2023/10/27 06:41:34;;;;;;;1.70;0.53;;;;;;;;;;5072955;28;20829;-83
2023/10/27 06:44:01;;;;;;;2.30;0.50;;;;;;;;;;5072568;28;20415;-83
2023/10/27 06:46:27;;;;;;;2.43;1.00;;;;;;;;;;5072945;28;20412;-82
2023/10/27 06:48:53;;;;;;;3.10;0.60;;;;;;;;;;5072742;28;20455;-81
2023/10/27 06:51:19;;;;;;;2.40;0.90;;;;;;;;;;5078845;28;20931;-83
2023/10/27 06:53:45;;;;;;;4.43;0.70;;;;;;;;;;5093020;28;20183;-82
2023/10/27 06:56:11;;;;;;;1.40;0.40;;;;;;;;;;5093048;28;20411;-80
2023/10/27 06:58:39;;;;;;;1.30;0.27;;;;;;;;;;5092560;28;20904;-80
2023/10/27 07:01:06;;;;;;;2.67;0.63;;;;;;;;;;5092701;28;20462;-81
2023/10/27 07:03:34;;;;;;;3.53;0.60;;;;;;;;;;5092253;28;20424;-81
2023/10/27 07:05:59;;;;;;;2.87;0.70;;;;;;;;;;5089871;28;20773;-80
2023/10/27 07:08:25;;;;;;;2.40;0.37;;;;;;;;;;5092263;28;20426;-81
2023/10/27 07:10:57;;;;;;;2.27;0.57;;;;;;;;;;5092421;28;20179;-79
2023/10/27 07:13:23;;;;;;;3.63;0.70;;;;;;;;;;5089801;28;20491;-81
2023/10/27 07:15:49;;;;;;;2.07;0.87;;;;;;;;;;5092478;28;20499;-83
2023/10/27 07:18:15;;;;;;;1.77;0.60;;;;;;;;;;5092450;28;20420;-82
2023/10/27 07:20:41;;;;;;;3.10;1.00;;;;;;;;;;5091291;28;20432;-81
2023/10/27 07:23:07;;;;;;;2.70;0.97;;;;;;;;;;5090969;28;20651;-80
2023/10/27 07:25:33;;;;;;;2.27;0.70;;;;;;;;;;5091613;28;20521;-81
2023/10/27 07:27:59;;;;;;;3.07;1.23;;;;;;;;;;5089182;28;20196;-83
2023/10/27 07:30:25;;;;;;;4.80;0.70;;;;;;;;;;5092140;28;20458;-82
2023/10/27 07:32:51;;;;;;;3.07;0.70;;;;;;;;;;5092141;28;20451;-82
2023/10/27 07:35:17;;;;;;;2.47;0.80;;;;;;;;;;5090735;28;20410;-83
2023/10/27 07:37:43;;;;;;;2.27;0.87;;;;;;;;;;5092087;28;20469;-84
2023/10/27 07:40:09;;;;;;;2.50;1.10;;;;;;;;;;5092089;28;20409;-84
2023/10/27 07:42:35;;;;;;;2.63;0.60;;;;;;;;;;5090289;28;20997;-85
2023/10/27 07:45:01;;;;;;;6.30;1.20;;;;;;;;;;5092241;28;20493;-85
2023/10/27 07:47:27;;;;;;;3.13;0.90;;;;;;;;;;5094207;28;20589;-85
2023/10/27 07:49:56;;;;;;;2.57;1.07;;;;;;;;;;5094389;28;20461;-83
2023/10/27 07:52:22;;;;;;;3.77;1.07;;;;;;;;;;5095568;28;20408;-84
2023/10/27 07:54:48;;;;;;;4.53;1.63;;;;;;;;;;5095629;28;20415;-84
2023/10/27 07:57:14;;;;;;;2.50;0.87;;;;;;;;;;5095228;28;20500;-84
2023/10/27 07:59:40;;;;;;;5.60;1.30;;;;;;;;;;5095551;28;20417;-83
2023/10/27 08:02:06;;;;;;;4.50;1.67;;;;;;;;;;5094166;28;20973;-85
2023/10/27 08:04:34;;;;;;;4.50;1.60;;;;;;;;;;5094046;28;20414;-83
2023/10/27 08:07:00;;;;;;;3.60;1.77;;;;;;;;;;5092869;28;20423;-83
2023/10/27 08:09:29;;;;;;;3.27;1.10;;;;;;;;;;5095236;28;20439;-83
2023/10/27 08:11:55;;;;;;;4.03;1.20;;;;;;;;;;5094827;28;20449;-84
2023/10/27 08:14:24;;;;;;;2.30;1.20;;;;;;;;;;5095265;28;20412;-83
2023/10/27 08:16:50;;;;;;;5.30;1.30;;;;;;;;;;5095220;28;20538;-85
2023/10/27 08:19:16;;;;;;;2.67;1.20;;;;;;;;;;5095142;28;20769;-84
2023/10/27 08:21:42;;;;;;;3.80;1.50;;;;;;;;;;5093714;28;20499;-84
2023/10/27 08:24:08;;;;;;;2.73;0.90;;;;;;;;;;5095518;28;20170;-83
2023/10/27 08:26:34;;;;;;;3.23;1.33;;;;;;;;;;5095467;28;20413;-84
2023/10/27 08:28:59;;;;;;;3.00;1.17;;;;;;;;;;5095090;28;20401;-83
2023/10/27 08:31:25;;;;;;;3.97;1.60;;;;;;;;;;5095326;28;20412;-84
2023/10/27 08:33:51;;;;;;;2.70;0.97;;;;;;;;;;5095265;28;20882;-84
2023/10/27 08:36:18;;;;;;;5.20;1.57;;;;;;;;;;5095261;28;20183;-84
2023/10/27 08:38:44;;;;;;;2.33;1.20;;;;;;;;;;5095258;28;20487;-84
2023/10/27 08:41:10;;;;;;;3.03;0.90;;;;;;;;;;5095125;28;20559;-83
2023/10/27 08:43:37;;;;;;;2.33;1.20;;;;;;;;;;5094736;28;20269;-82
2023/10/27 08:46:09;;;;;;;4.27;0.90;;;;;;;;;;5095098;28;20492;-82
2023/10/27 08:48:35;;;;;;;2.57;1.17;;;;;;;;;;5094782;28;20470;-82
2023/10/27 08:51:05;;;;;;;3.70;1.80;;;;;;;;;;5093741;28;20428;-83
2023/10/27 08:53:31;;;;;;;2.87;0.73;;;;;;;;;;5094936;28;20410;-82
2023/10/27 08:55:58;;;;;;;2.97;1.23;;;;;;;;;;5094956;28;20400;-83
2023/10/27 08:58:25;;;;;;;2.83;0.63;;;;;;;;;;5092387;28;20408;-83
2023/10/27 09:00:50;;;;;;;3.47;1.10;;;;;;;;;;5094805;28;20959;-83
2023/10/27 09:03:17;;;;;;;2.73;0.73;;;;;;;;;;5094802;28;20411;-83
2023/10/27 09:05:44;;;;;;;3.20;1.30;;;;;;;;;;5093485;28;20486;-83
2023/10/27 09:08:10;;;;;;;3.17;0.83;;;;;;;;;;5094828;28;20405;-82
2023/10/27 09:10:36;;;;;;;1.73;0.90;;;;;;;;;;5094919;28;20420;-83
2023/10/27 09:13:04;;;;;;;3.83;1.47;;;;;;;;;;5094269;28;20431;-82
2023/10/27 09:15:40;;;;;;;2.33;1.50;;;;;;;;;;5094585;28;20821;-83
2023/10/27 09:18:08;;;;;;;2.27;1.07;;;;;;;;;;5094493;28;20411;-83
2023/10/27 09:20:45;;;;;;;1.70;1.07;;;;;;;;;;5093309;28;20424;-84
2023/10/27 09:23:12;;;;;;;6.60;1.33;;;;;;;;;;5093790;28;20778;-82
2023/10/27 09:25:38;;;;;;;2.47;1.07;;;;;;;;;;5093757;28;20426;-82
2023/10/27 09:28:05;;;;;;;5.23;0.97;;;;;;;;;;5093400;28;20811;-81
2023/10/27 09:30:33;;;;;;;3.80;1.43;;;;;;;;;;5093737;28;20176;-82
2023/10/27 09:33:22;;;;;;;2.40;0.93;;;;;;;;;;5093635;28;20450;-82
2023/10/27 09:35:49;;;;;;;2.20;0.60;;;;;;;;;;5091579;28;20402;-81
2023/10/27 09:38:15;;;;;;;1.43;0.57;;;;;;;;;;5093591;28;20902;-81
2023/10/27 09:40:48;;;;;;;2.50;0.70;;;;;;;;;;5093278;28;20500;-81
2023/10/27 09:43:18;;;;;;;2.03;0.90;;;;;;;;;;5093136;28;20413;-82
2023/10/27 09:45:58;;;;;;;3.00;0.83;;;;;;;;;;5089412;28;20884;-82
2023/10/27 09:48:24;;;;;;;2.87;1.20;;;;;;;;;;5089322;28;20467;-82
2023/10/27 09:50:53;;;;;;;2.17;1.13;;;;;;;;;;5093429;28;20424;-82
2023/10/27 09:53:19;;;;;;;1.17;0.70;;;;;;;;;;5093343;28;20432;-82
2023/10/27 09:55:45;;;;;;;1.40;0.53;;;;;;;;;;5093427;28;20405;-83
2023/10/27 09:58:11;;;;;;;2.10;0.50;;;;;;;;;;5092903;28;20475;-82
2023/10/27 10:00:37;;;;;;;1.77;0.37;;;;;;;;;;5093089;28;20418;-82
2023/10/27 10:03:06;;;;;;;3.00;0.97;;;;;;;;;;5089458;28;20417;-82
2023/10/27 10:05:52;;;;;;;1.60;0.63;;;;;;;;;;5093662;28;20436;-84
2023/10/27 10:08:19;;;;;;;2.10;0.40;;;;;;;;;;5093314;28;20408;-82
2023/10/27 10:10:45;;;;;;;1.53;0.50;;;;;;;;;;5093577;28;20500;-82
2023/10/27 10:13:12;;;;;;;2.10;0.60;;;;;;;;;;5093220;28;20405;-82
2023/10/27 10:15:42;;;;;;;3.97;1.20;;;;;;;;;;5093422;28;20458;-82
2023/10/27 10:18:09;;;;;;;1.60;0.93;;;;;;;;;;5092125;28;20763;-81
2023/10/27 10:20:56;;;;;;;4.33;1.40;;;;;;;;;;5092344;28;20412;-81
2023/10/27 10:23:24;;;;;;;1.90;0.70;;;;;;;;;;5090631;28;20431;-83
2023/10/27 10:25:54;;;;;;;3.33;1.17;;;;;;;;;;5077257;28;20413;-82
2023/10/27 10:28:20;;;;;;;2.83;1.30;;;;;;;;;;5070275;28;20924;-82
2023/10/27 10:30:47;;;;;;;2.30;0.83;;;;;;;;;;5069786;28;20418;-80
2023/10/27 10:33:28;;;;;;;1.87;0.80;;;;;;;;;;5072792;28;20181;-83
2023/10/27 10:36:18;;;;;;;2.30;1.23;;;;;;;;;;5094469;28;20911;-83
2023/10/27 10:38:44;;;;;;;2.57;1.00;;;;;;;;;;5111674;28;20986;-81
2023/10/27 10:41:11;;;;;;;7.20;1.33;;;;;;;;;;5111884;28;20460;-80
2023/10/27 10:43:37;;;;;;;3.53;1.00;;;;;;;;;;5100094;28;20421;-82
2023/10/27 10:46:04;;;;;;;2.20;1.10;;;;;;;;;;5082404;28;20435;-76
2023/10/27 10:48:34;;;;;;;2.83;1.90;;;;;;;;;;5072163;28;20509;-76
2023/10/27 10:53:53;;;;;;;4.10;1.97;;;;;;;;;;5073161;28;20401;-77
2023/10/27 10:56:19;;;;;;;3.10;1.73;;;;;;;;;;5072517;28;20468;-77
2023/10/27 10:58:45;;;;;;;4.23;2.40;;;;;;;;;;5072887;28;20400;-79
2023/10/27 11:01:18;;;;;;;4.20;1.47;;;;;;;;;;5072775;28;20863;-77
2023/10/27 11:03:51;;;;;;;2.90;1.60;;;;;;;;;;5072713;28;20409;-79
2023/10/27 11:06:23;;;;;;;3.17;1.17;;;;;;;;;;5072786;28;20910;-76
2023/10/27 11:08:49;;;;;;;2.00;1.37;;;;;;;;;;5072702;28;20494;-79
2023/10/27 11:11:18;;;;;;;2.37;1.00;;;;;;;;;;5072298;28;20442;-76
2023/10/27 11:13:47;;;;;;;3.10;1.27;;;;;;;;;;5072587;28;20403;-77
2023/10/27 11:16:14;;;;;;;3.70;1.43;;;;;;;;;;5072640;28;20497;-76
2023/10/27 11:18:40;;;;;;;3.63;1.50;;;;;;;;;;5072670;28;20428;-77
2023/10/27 11:21:05;;;;;;;3.00;1.40;;;;;;;;;;5074190;28;20966;-80
2023/10/27 11:23:32;;;;;;;4.03;1.30;;;;;;;;;;5076459;28;20423;-76
2023/10/27 11:26:04;;;;;;;3.60;2.17;;;;;;;;;;5076491;28;20399;-79
2023/10/27 11:28:30;;;;;;;6.17;1.60;;;;;;;;;;5076214;28;20425;-76
2023/10/27 11:30:59;;;;;;;2.87;1.67;;;;;;;;;;5076383;28;20411;-76
2023/10/27 11:33:25;;;;;;;2.43;0.90;;;;;;;;;;5076256;28;20818;-76
2023/10/27 11:35:51;;;;;;;2.07;1.40;;;;;;;;;;5076228;28;20422;-76
2023/10/27 11:38:17;;;;;;;2.87;1.70;;;;;;;;;;5076183;28;20415;-79
2023/10/27 11:40:43;;;;;;;3.07;1.47;;;;;;;;;;5076105;28;20860;-77
2023/10/27 11:43:09;;;;;;;3.97;1.10;;;;;;;;;;5075804;28;20415;-77
2023/10/27 11:45:35;;;;;;;3.13;1.50;;;;;;;;;;5074761;28;20915;-79
2023/10/27 11:48:01;;;;;;;3.40;1.33;;;;;;;;;;5075180;28;20334;-76
2023/10/27 11:50:26;;;;;;;4.20;2.00;;;;;;;;;;5074754;28;20864;-76
2023/10/27 11:52:52;;;;;;;4.00;1.20;;;;;;;;;;5074774;28;20452;-77
2023/10/27 11:55:19;;;;;;;2.50;1.17;;;;;;;;;;5073441;28;20419;-76
2023/10/27 11:57:45;;;;;;;2.77;1.40;;;;;;;;;;5074385;28;20172;-77
2023/10/27 12:00:11;;;;;;;3.67;1.37;;;;;;;;;;5074640;28;20417;-76
2023/10/27 12:02:37;;;;;;;5.97;2.00;;;;;;;;;;5074462;28;20466;-77
2023/10/27 12:05:03;;;;;;;3.73;1.93;;;;;;;;;;5073259;28;20476;-76
2023/10/27 12:07:29;;;;;;;3.17;1.80;;;;;;;;;;5074515;28;20424;-77
2023/10/27 12:09:55;;;;;;;7.93;2.63;;;;;;;;;;5074510;28;20849;-78
2023/10/27 12:12:22;;;;;;;3.03;1.60;;;;;;;;;;5074132;28;20193;-78
2023/10/27 12:14:47;;;;;;;4.27;2.67;;;;;;;;;;5074527;28;20573;-76
2023/10/27 12:17:13;;;;;;;3.03;1.73;;;;;;;;;;5074265;28;20498;-78
2023/10/27 12:19:39;;;;;;;2.37;1.47;;;;;;;;;;5074364;28;20501;-78
2023/10/27 12:22:05;;;;;;;3.87;2.07;;;;;;;;;;5074176;28;20635;-80
2023/10/27 12:24:33;;;;;;;2.43;1.40;;;;;;;;;;5073088;28;20502;-79
2023/10/27 12:26:59;;;;;;;5.33;2.20;;;;;;;;;;5073918;28;20414;-79
2023/10/27 12:29:26;;;;;;;3.80;2.23;;;;;;;;;;5074109;28;20417;-81
2023/10/27 12:31:53;;;;;;;3.97;1.70;;;;;;;;;;5073047;28;20431;-80
2023/10/27 12:34:19;;;;;;;3.23;1.73;;;;;;;;;;5073844;28;20450;-80
2023/10/27 12:36:45;;;;;;;2.90;1.63;;;;;;;;;;5074108;28;20485;-78
2023/10/27 12:39:11;;;;;;;2.63;1.50;;;;;;;;;;5074116;28;20703;-80
2023/10/27 12:41:37;;;;;;;2.90;1.73;;;;;;;;;;5073592;28;20556;-79
2023/10/27 12:44:03;;;;;;;2.80;1.43;;;;;;;;;;5073951;28;20762;-78
2023/10/27 12:46:29;;;;;;;2.97;1.87;;;;;;;;;;5073897;28;20411;-80
2023/10/27 12:48:55;;;;;;;3.37;1.43;;;;;;;;;;5039540;28;1000869;-80
2023/10/27 12:51:21;;;;;;;3.37;1.80;;;;;;;;;;5074884;28;20175;-80
2023/10/27 12:53:47;;;;;;;4.53;1.40;;;;;;;;;;5074801;28;20414;-77
2023/10/27 12:56:13;;;;;;;3.37;1.03;;;;;;;;;;5074423;28;20408;-78
2023/10/27 12:58:41;;;;;;;3.70;2.03;;;;;;;;;;5074670;28;20177;-78
2023/10/27 13:01:07;;;;;;;3.67;2.03;;;;;;;;;;5074625;28;20469;-78
2023/10/27 13:03:32;;;;;;;5.70;2.50;;;;;;;;;;5074590;28;20770;-77
2023/10/27 13:05:58;;;;;;;3.50;2.43;;;;;;;;;;5074575;28;20501;-77
2023/10/27 13:08:25;;;;;;;2.73;2.33;;;;;;;;;;5074451;28;20220;-79
2023/10/27 13:10:51;;;;;;;4.10;2.10;;;;;;;;;;5074189;28;20445;-79
2023/10/27 13:13:16;;;;;;;3.83;3.30;;;;;;;;;;5074278;28;20479;-78
2023/10/27 13:15:42;;;;;;;4.60;2.57;;;;;;;;;;5074403;28;20414;-77
2023/10/27 13:18:08;;;;;;;3.50;1.73;;;;;;;;;;5074250;28;20425;-77
2023/10/27 13:20:35;;;;;;;3.60;1.97;;;;;;;;;;5074182;28;20476;-78
2023/10/27 13:23:02;;;;;;;2.87;1.60;;;;;;;;;;5074305;28;20419;-77
2023/10/27 13:25:28;;;;;;;4.20;2.50;;;;;;;;;;5074234;28;20395;-77
2023/10/27 13:27:54;;;;;;;3.23;1.77;;;;;;;;;;5073737;28;20493;-77
2023/10/27 13:30:22;;;;;;;4.33;3.00;;;;;;;;;;5074068;28;20506;-77
2023/10/27 13:32:51;;;;;;;5.00;2.97;;;;;;;;;;5074015;28;20421;-79
2023/10/27 13:35:20;;;;;;;3.97;2.73;;;;;;;;;;5073906;28;20413;-77
2023/10/27 13:37:46;;;;;;;5.33;2.50;;;;;;;;;;5073866;28;20402;-77
2023/10/27 13:40:18;;;;;;;4.50;3.40;;;;;;;;;;5073853;28;20490;-76
2023/10/27 13:42:44;;;;;;;3.70;1.53;;;;;;;;;;5073401;28;20834;-77
2023/10/27 13:45:13;;;;;;;4.07;1.93;;;;;;;;;;5073447;28;20403;-78
2023/10/27 13:47:39;;;;;;;5.23;4.23;;;;;;;;;;5073544;28;20462;-77
2023/10/27 13:50:07;;;;;;;3.10;1.77;;;;;;;;;;5072323;28;20954;-77
2023/10/27 13:52:33;;;;;;;3.57;2.20;;;;;;;;;;5073619;28;20410;-76
2023/10/27 13:54:59;;;;;;;4.43;3.43;;;;;;;;;;5073693;28;20415;-77
2023/10/27 13:57:25;;;;;;;2.87;1.70;;;;;;;;;;5072039;28;20417;-78
2023/10/27 13:59:51;;;;;;;3.20;1.77;;;;;;;;;;5073609;28;20436;-78
2023/10/27 14:02:17;;;;;;;3.53;1.57;;;;;;;;;;5073346;28;20510;-77
2023/10/27 14:04:43;;;;;;;4.10;1.70;;;;;;;;;;5073413;28;20436;-77
2023/10/27 14:07:09;;;;;;;3.13;2.03;;;;;;;;;;5073421;28;20601;-78
2023/10/27 14:09:36;;;;;;;3.70;2.23;;;;;;;;;;5073354;28;20579;-78
2023/10/27 14:12:02;;;;;;;4.03;1.87;;;;;;;;;;5071779;28;20453;-78
2023/10/27 14:14:28;;;;;;;3.90;2.00;;;;;;;;;;5073379;28;20508;-78
2023/10/27 14:16:54;;;;;;;3.70;2.03;;;;;;;;;;5073179;28;20452;-78
2023/10/27 14:19:20;;;;;;;4.53;1.43;;;;;;;;;;5073320;28;20424;-77
2023/10/27 14:21:48;;;;;;;4.07;2.30;;;;;;;;;;5073116;28;20538;-78
2023/10/27 14:24:14;;;;;;;3.83;2.10;;;;;;;;;;5072225;28;20762;-77
2023/10/27 14:26:41;;;;;;;5.10;2.37;;;;;;;;;;5072974;28;20254;-77
2023/10/27 14:29:07;;;;;;;5.00;2.37;;;;;;;;;;5073176;28;20407;-78
2023/10/27 14:31:33;;;;;;;3.67;1.77;;;;;;;;;;5073113;28;20484;-77
2023/10/27 14:34:00;;;;;;;4.37;2.30;;;;;;;;;;5073143;28;20504;-78
2023/10/27 14:36:27;;;;;;;3.10;1.73;;;;;;;;;;5073046;28;20463;-78
2023/10/27 14:38:54;;;;;;;3.40;1.77;;;;;;;;;;5073056;28;20412;-78
2023/10/27 14:41:22;;;;;;;8.53;3.37;;;;;;;;;;5072644;28;20457;-79
2023/10/27 14:43:48;;;;;;;6.70;5.27;;;;;;;;;;5072975;28;20409;-78